PWSweather.com
Personal Weather Stations
Station Observations
METEOC500
Santo Antonio, FunchalPT 2020

Santo AntonioFunchalPT 2020

Lat: 32.678227, Lon: -16.945054

Elevation: 1669.94751

Station Type: WH Series

High Low Average
Temperature 72.0°F22.2°C 58.5°F14.7°C 63.8°F17.7°C
Dew Point 63.7°F17.6°C 48.7°F9.3°C 57.3°F14.1°C
Winds 8.5 mph 13.7 kmh Calm Calm 3.0 mph W4.8 kmh W
Wind Gusts 12.5 mph20.1 kmh 2.5 mph4.0 kmh 8.0 mph12.9 kmh
Humidity 91% 65% 80%
Pressure 30.04 in1017.3 mb 29.89 in1012.2 mb -
Precipitation 0.00 in0.0 mm - -
Hour Temp Dew Point Humidity Winds Wind Gusts Pressure Precip Precip Rate Daily Precip Total
12:11 AM 59.4°F15.2°C 53.6°F12.0°C 81% 4.5 mph NNW7.2 kmh NNW 10.1 mph16.3 kmh 29.95 in1014.2 mb 0.00 in0.0 mm 0.00 in0.0 mm 0.00 in0.0 mm
12:26 AM 59.0°F15.0°C 52.9°F11.6°C 80% 3.4 mph NW5.5 kmh NW 10.1 mph16.3 kmh 29.94 in1013.9 mb 0.00 in0.0 mm 0.00 in0.0 mm 0.00 in0.0 mm
12:41 AM 58.6°F14.8°C 53.2°F11.8°C 82% 1.6 mph NNW2.6 kmh NNW 7.6 mph12.2 kmh 29.95 in1014.2 mb 0.00 in0.0 mm 0.00 in0.0 mm 0.00 in0.0 mm
12:56 AM 58.6°F14.8°C 54.1°F12.3°C 85% 2.5 mph NNW4.0 kmh NNW 7.6 mph12.2 kmh 29.94 in1013.9 mb 0.00 in0.0 mm 0.00 in0.0 mm 0.00 in0.0 mm
01:11 AM 58.6°F14.8°C 54.1°F12.3°C 85% 4.9 mph N7.9 kmh N 10.1 mph16.3 kmh 29.94 in1013.9 mb 0.00 in0.0 mm 0.00 in0.0 mm 0.00 in0.0 mm
01:26 AM 58.5°F14.7°C 53.2°F11.8°C 83% 4.5 mph N7.2 kmh N 7.6 mph12.2 kmh 29.93 in1013.5 mb 0.00 in0.0 mm 0.00 in0.0 mm 0.00 in0.0 mm
01:41 AM 58.6°F14.8°C 53.8°F12.1°C 84% 5.6 mph NNW9.0 kmh NNW 10.1 mph16.3 kmh 29.93 in1013.5 mb 0.00 in0.0 mm 0.00 in0.0 mm 0.00 in0.0 mm
01:56 AM 58.8°F14.9°C 53.6°F12.0°C 83% 2.9 mph NW4.7 kmh NW 10.1 mph16.3 kmh 29.93 in1013.5 mb 0.00 in0.0 mm 0.00 in0.0 mm 0.00 in0.0 mm
02:11 AM 58.8°F14.9°C 53.6°F12.0°C 83% 1.6 mph NW2.6 kmh NW 7.6 mph12.2 kmh 29.93 in1013.5 mb 0.00 in0.0 mm 0.00 in0.0 mm 0.00 in0.0 mm
02:26 AM 58.8°F14.9°C 54.3°F12.4°C 85% 4.0 mph NNW6.4 kmh NNW 7.6 mph12.2 kmh 29.92 in1013.2 mb 0.00 in0.0 mm 0.00 in0.0 mm 0.00 in0.0 mm
02:41 AM 58.6°F14.8°C 53.8°F12.1°C 84% 5.6 mph NNW9.0 kmh NNW 10.1 mph16.3 kmh 29.92 in1013.2 mb 0.00 in0.0 mm 0.00 in0.0 mm 0.00 in0.0 mm
02:57 AM 58.8°F14.9°C 54.3°F12.4°C 85% 3.4 mph NNW5.5 kmh NNW 12.5 mph20.1 kmh 29.92 in1013.2 mb 0.00 in0.0 mm 0.00 in0.0 mm 0.00 in0.0 mm
03:12 AM 59.0°F15.0°C 54.1°F12.3°C 84% 1.8 mph NW2.9 kmh NW 7.6 mph12.2 kmh 29.92 in1013.2 mb 0.00 in0.0 mm 0.00 in0.0 mm 0.00 in0.0 mm
03:27 AM 59.0°F15.0°C 54.9°F12.7°C 86% 4.9 mph NNW7.9 kmh NNW 7.6 mph12.2 kmh 29.92 in1013.2 mb 0.00 in0.0 mm 0.00 in0.0 mm 0.00 in0.0 mm
03:42 AM 59.0°F15.0°C 54.5°F12.5°C 85% Calm Calm 7.6 mph12.2 kmh 29.92 in1013.2 mb 0.00 in0.0 mm 0.00 in0.0 mm 0.00 in0.0 mm
03:57 AM 59.2°F15.1°C 54.7°F12.6°C 85% Calm Calm 7.6 mph12.2 kmh 29.91 in1012.9 mb 0.00 in0.0 mm 0.00 in0.0 mm 0.00 in0.0 mm
04:12 AM 59.0°F15.0°C 54.9°F12.7°C 86% 5.6 mph NNW9.0 kmh NNW 7.6 mph12.2 kmh 29.91 in1012.9 mb 0.00 in0.0 mm 0.00 in0.0 mm 0.00 in0.0 mm
04:27 AM 59.4°F15.2°C 54.5°F12.5°C 84% Calm Calm 7.6 mph12.2 kmh 29.91 in1012.9 mb 0.00 in0.0 mm 0.00 in0.0 mm 0.00 in0.0 mm
04:42 AM 59.5°F15.3°C 55.0°F12.8°C 85% 6.0 mph NNW9.7 kmh NNW 10.1 mph16.3 kmh 29.91 in1012.9 mb 0.00 in0.0 mm 0.00 in0.0 mm 0.00 in0.0 mm
04:57 AM 60.1°F15.6°C 54.3°F12.4°C 81% 5.6 mph N9.0 kmh N 10.1 mph16.3 kmh 29.90 in1012.5 mb 0.00 in0.0 mm 0.00 in0.0 mm 0.00 in0.0 mm
05:12 AM 60.6°F15.9°C 54.7°F12.6°C 81% Calm Calm 7.6 mph12.2 kmh 29.90 in1012.5 mb 0.00 in0.0 mm 0.00 in0.0 mm 0.00 in0.0 mm
05:27 AM 60.3°F15.7°C 54.3°F12.4°C 81% 3.8 mph NNW6.1 kmh NNW 7.6 mph12.2 kmh 29.91 in1012.9 mb 0.00 in0.0 mm 0.00 in0.0 mm 0.00 in0.0 mm
05:42 AM 59.7°F15.4°C 54.9°F12.7°C 84% 3.4 mph NNW5.5 kmh NNW 7.6 mph12.2 kmh 29.91 in1012.9 mb 0.00 in0.0 mm 0.00 in0.0 mm 0.00 in0.0 mm
05:57 AM 59.4°F15.2°C 54.1°F12.3°C 83% 4.9 mph N7.9 kmh N 7.6 mph12.2 kmh 29.91 in1012.9 mb 0.00 in0.0 mm 0.00 in0.0 mm 0.00 in0.0 mm
06:12 AM 59.2°F15.1°C 52.7°F11.5°C 79% 4.9 mph N7.9 kmh N 7.6 mph12.2 kmh 29.91 in1012.9 mb 0.00 in0.0 mm 0.00 in0.0 mm 0.00 in0.0 mm
06:28 AM 59.4°F15.2°C 52.5°F11.4°C 78% 4.7 mph N7.6 kmh N 7.6 mph12.2 kmh 29.92 in1013.2 mb 0.00 in0.0 mm 0.00 in0.0 mm 0.00 in0.0 mm
06:43 AM 59.5°F15.3°C 52.7°F11.5°C 78% 6.0 mph NW9.7 kmh NW 10.1 mph16.3 kmh 29.92 in1013.2 mb 0.00 in0.0 mm 0.00 in0.0 mm 0.00 in0.0 mm
06:58 AM 59.4°F15.2°C 50.7°F10.4°C 73% 3.4 mph NNW5.5 kmh NNW 7.6 mph12.2 kmh 29.92 in1013.2 mb 0.00 in0.0 mm 0.00 in0.0 mm 0.00 in0.0 mm
07:13 AM 59.2°F15.1°C 50.5°F10.3°C 73% 3.8 mph NW6.1 kmh NW 10.1 mph16.3 kmh 29.92 in1013.2 mb 0.00 in0.0 mm 0.00 in0.0 mm 0.00 in0.0 mm
07:28 AM 58.8°F14.9°C 50.5°F10.3°C 74% 4.7 mph NNW7.6 kmh NNW 10.1 mph16.3 kmh 29.93 in1013.5 mb 0.00 in0.0 mm 0.00 in0.0 mm 0.00 in0.0 mm
07:43 AM 58.8°F14.9°C 49.8°F9.9°C 72% 4.7 mph NNW7.6 kmh NNW 10.1 mph16.3 kmh 29.93 in1013.5 mb 0.00 in0.0 mm 0.00 in0.0 mm 0.00 in0.0 mm
07:58 AM 58.8°F14.9°C 51.3°F10.7°C 76% 3.8 mph NNW6.1 kmh NNW 7.6 mph12.2 kmh 29.93 in1013.5 mb 0.00 in0.0 mm 0.00 in0.0 mm 0.00 in0.0 mm
08:13 AM 58.6°F14.8°C 49.6°F9.8°C 72% 6.0 mph NNW9.7 kmh NNW 7.6 mph12.2 kmh 29.93 in1013.5 mb 0.00 in0.0 mm 0.00 in0.0 mm 0.00 in0.0 mm
08:28 AM 59.4°F15.2°C 48.7°F9.3°C 68% 4.0 mph NNW6.4 kmh NNW 10.1 mph16.3 kmh 29.94 in1013.9 mb 0.00 in0.0 mm 0.00 in0.0 mm 0.00 in0.0 mm
08:43 AM 60.4°F15.8°C 51.4°F10.8°C 72% 5.4 mph N8.7 kmh N 10.1 mph16.3 kmh 29.94 in1013.9 mb 0.00 in0.0 mm 0.00 in0.0 mm 0.00 in0.0 mm
08:58 AM 61.0°F16.1°C 53.4°F11.9°C 76% 4.0 mph N6.4 kmh N 7.6 mph12.2 kmh 29.96 in1014.6 mb 0.00 in0.0 mm 0.00 in0.0 mm 0.00 in0.0 mm
09:13 AM 61.7°F16.5°C 54.1°F12.3°C 76% 2.9 mph NNW4.7 kmh NNW 7.6 mph12.2 kmh 29.96 in1014.6 mb 0.00 in0.0 mm 0.00 in0.0 mm 0.00 in0.0 mm
09:28 AM 62.8°F17.1°C 54.7°F12.6°C 75% 0.7 mph NW1.1 kmh NW 4.9 mph7.9 kmh 29.96 in1014.6 mb 0.00 in0.0 mm 0.00 in0.0 mm 0.00 in0.0 mm
09:43 AM 64.4°F18.0°C 54.9°F12.7°C 71% 1.8 mph SSE2.9 kmh SSE 4.9 mph7.9 kmh 29.97 in1014.9 mb 0.00 in0.0 mm 0.00 in0.0 mm 0.00 in0.0 mm
09:59 AM 67.5°F19.7°C 56.1°F13.4°C 67% 3.8 mph SSW6.1 kmh SSW 4.9 mph7.9 kmh 29.97 in1014.9 mb 0.00 in0.0 mm 0.00 in0.0 mm 0.00 in0.0 mm
10:14 AM 69.1°F20.6°C 58.5°F14.7°C 69% 1.8 mph S2.9 kmh S 4.9 mph7.9 kmh 29.97 in1014.9 mb 0.00 in0.0 mm 0.00 in0.0 mm 0.00 in0.0 mm
10:29 AM 68.7°F20.4°C 59.0°F15.0°C 71% 2.5 mph S4.0 kmh S 7.6 mph12.2 kmh 29.98 in1015.2 mb 0.00 in0.0 mm 0.00 in0.0 mm 0.00 in0.0 mm
10:44 AM 68.5°F20.3°C 58.8°F14.9°C 71% Calm Calm 7.6 mph12.2 kmh 29.98 in1015.2 mb 0.00 in0.0 mm 0.00 in0.0 mm 0.00 in0.0 mm
10:59 AM 68.7°F20.4°C 58.1°F14.5°C 69% 3.1 mph SE5.0 kmh SE 10.1 mph16.3 kmh 29.98 in1015.2 mb 0.00 in0.0 mm 0.00 in0.0 mm 0.00 in0.0 mm
11:14 AM 69.1°F20.6°C 58.8°F14.9°C 70% 3.8 mph S6.1 kmh S 7.6 mph12.2 kmh 29.98 in1015.2 mb 0.00 in0.0 mm 0.00 in0.0 mm 0.00 in0.0 mm
11:29 AM 69.4°F20.8°C 59.2°F15.1°C 70% 4.9 mph S7.9 kmh S 7.6 mph12.2 kmh 29.97 in1014.9 mb 0.00 in0.0 mm 0.00 in0.0 mm 0.00 in0.0 mm
11:44 AM 69.8°F21.0°C 59.5°F15.3°C 70% 4.7 mph S7.6 kmh S 10.1 mph16.3 kmh 29.98 in1015.2 mb 0.00 in0.0 mm 0.00 in0.0 mm 0.00 in0.0 mm
11:59 AM 69.8°F21.0°C 59.5°F15.3°C 70% 5.4 mph SSE8.7 kmh SSE 10.1 mph16.3 kmh 29.97 in1014.9 mb 0.00 in0.0 mm 0.00 in0.0 mm 0.00 in0.0 mm
12:14 PM 69.8°F21.0°C 59.5°F15.3°C 70% 4.9 mph S7.9 kmh S 10.1 mph16.3 kmh 29.97 in1014.9 mb 0.00 in0.0 mm 0.00 in0.0 mm 0.00 in0.0 mm
12:29 PM 70.0°F21.1°C 60.6°F15.9°C 72% 0.7 mph ESE1.1 kmh ESE 10.1 mph16.3 kmh 29.96 in1014.6 mb 0.00 in0.0 mm 0.00 in0.0 mm 0.00 in0.0 mm
12:44 PM 70.0°F21.1°C 60.6°F15.9°C 72% 4.0 mph SE6.4 kmh SE 7.6 mph12.2 kmh 29.95 in1014.2 mb 0.00 in0.0 mm 0.00 in0.0 mm 0.00 in0.0 mm
12:59 PM 69.4°F20.8°C 60.4°F15.8°C 73% 7.8 mph SSE12.6 kmh SSE 10.1 mph16.3 kmh 29.95 in1014.2 mb 0.00 in0.0 mm 0.00 in0.0 mm 0.00 in0.0 mm
01:15 PM 69.4°F20.8°C 60.8°F16.0°C 74% 5.4 mph S8.7 kmh S 10.1 mph16.3 kmh 29.93 in1013.5 mb 0.00 in0.0 mm 0.00 in0.0 mm 0.00 in0.0 mm
01:30 PM 70.0°F21.1°C 60.6°F15.9°C 72% 3.1 mph S5.0 kmh S 7.6 mph12.2 kmh 29.92 in1013.2 mb 0.00 in0.0 mm 0.00 in0.0 mm 0.00 in0.0 mm
01:45 PM 70.2°F21.2°C 60.6°F15.9°C 72% 3.8 mph S6.1 kmh S 10.1 mph16.3 kmh 29.92 in1013.2 mb 0.00 in0.0 mm 0.00 in0.0 mm 0.00 in0.0 mm
02:00 PM 70.5°F21.4°C 60.6°F15.9°C 71% 2.5 mph S4.0 kmh S 10.1 mph16.3 kmh 29.91 in1012.9 mb 0.00 in0.0 mm 0.00 in0.0 mm 0.00 in0.0 mm
02:15 PM 70.9°F21.6°C 63.0°F17.2°C 76% 4.0 mph SSW6.4 kmh SSW 7.6 mph12.2 kmh 29.90 in1012.5 mb 0.00 in0.0 mm 0.00 in0.0 mm 0.00 in0.0 mm
02:30 PM 70.9°F21.6°C 63.7°F17.6°C 78% 0.9 mph SW1.4 kmh SW 10.1 mph16.3 kmh 29.91 in1012.9 mb 0.00 in0.0 mm 0.00 in0.0 mm 0.00 in0.0 mm
02:45 PM 70.5°F21.4°C 63.7°F17.6°C 79% 4.0 mph S6.4 kmh S 12.5 mph20.1 kmh 29.90 in1012.5 mb 0.00 in0.0 mm 0.00 in0.0 mm 0.00 in0.0 mm
03:00 PM 70.3°F21.3°C 63.5°F17.5°C 79% Calm Calm 10.1 mph16.3 kmh 29.90 in1012.5 mb 0.00 in0.0 mm 0.00 in0.0 mm 0.00 in0.0 mm
03:15 PM 70.9°F21.6°C 63.7°F17.6°C 78% 3.1 mph SW5.0 kmh SW 7.6 mph12.2 kmh 29.89 in1012.2 mb 0.00 in0.0 mm 0.00 in0.0 mm 0.00 in0.0 mm
03:30 PM 71.2°F21.8°C 63.7°F17.6°C 77% 2.2 mph SW3.5 kmh SW 10.1 mph16.3 kmh 29.89 in1012.2 mb 0.00 in0.0 mm 0.00 in0.0 mm 0.00 in0.0 mm
03:45 PM 71.1°F21.7°C 62.8°F17.1°C 75% 2.5 mph SE4.0 kmh SE 7.6 mph12.2 kmh 29.89 in1012.2 mb 0.00 in0.0 mm 0.00 in0.0 mm 0.00 in0.0 mm
04:00 PM 71.4°F21.9°C 62.2°F16.8°C 73% Calm Calm 10.1 mph16.3 kmh 29.90 in1012.5 mb 0.00 in0.0 mm 0.00 in0.0 mm 0.00 in0.0 mm
04:15 PM 72.0°F22.2°C 61.2°F16.2°C 69% Calm Calm 10.1 mph16.3 kmh 29.90 in1012.5 mb 0.00 in0.0 mm 0.00 in0.0 mm 0.00 in0.0 mm
04:31 PM 71.4°F21.9°C 59.0°F15.0°C 65% 3.8 mph NNW6.1 kmh NNW 10.1 mph16.3 kmh 29.91 in1012.9 mb 0.00 in0.0 mm 0.00 in0.0 mm 0.00 in0.0 mm
04:46 PM 70.0°F21.1°C 62.1°F16.7°C 76% 8.5 mph S13.7 kmh S 12.5 mph20.1 kmh 29.92 in1013.2 mb 0.00 in0.0 mm 0.00 in0.0 mm 0.00 in0.0 mm
05:01 PM 68.0°F20.0°C 61.5°F16.4°C 80% 5.4 mph SW8.7 kmh SW 12.5 mph20.1 kmh 29.92 in1013.2 mb 0.00 in0.0 mm 0.00 in0.0 mm 0.00 in0.0 mm
05:16 PM 66.0°F18.9°C 60.6°F15.9°C 83% 4.0 mph SW6.4 kmh SW 10.1 mph16.3 kmh 29.92 in1013.2 mb 0.00 in0.0 mm 0.00 in0.0 mm 0.00 in0.0 mm
05:31 PM 65.3°F18.5°C 60.6°F15.9°C 85% Calm Calm 7.6 mph12.2 kmh 29.91 in1012.9 mb 0.00 in0.0 mm 0.00 in0.0 mm 0.00 in0.0 mm
05:46 PM 64.8°F18.2°C 60.8°F16.0°C 87% Calm Calm 4.9 mph7.9 kmh 29.92 in1013.2 mb 0.00 in0.0 mm 0.00 in0.0 mm 0.00 in0.0 mm
06:01 PM 64.4°F18.0°C 60.4°F15.8°C 87% Calm Calm 2.5 mph4.0 kmh 29.93 in1013.5 mb 0.00 in0.0 mm 0.00 in0.0 mm 0.00 in0.0 mm
06:16 PM 64.0°F17.8°C 60.1°F15.6°C 87% Calm Calm 2.5 mph4.0 kmh 29.93 in1013.5 mb 0.00 in0.0 mm 0.00 in0.0 mm 0.00 in0.0 mm
06:31 PM 63.9°F17.7°C 60.3°F15.7°C 88% 0.9 mph W1.4 kmh W 4.9 mph7.9 kmh 29.93 in1013.5 mb 0.00 in0.0 mm 0.00 in0.0 mm 0.00 in0.0 mm
06:46 PM 63.7°F17.6°C 60.1°F15.6°C 88% Calm Calm 2.5 mph4.0 kmh 29.94 in1013.9 mb 0.00 in0.0 mm 0.00 in0.0 mm 0.00 in0.0 mm
07:01 PM 63.5°F17.5°C 59.9°F15.5°C 88% Calm Calm 4.9 mph7.9 kmh 29.95 in1014.2 mb 0.00 in0.0 mm 0.00 in0.0 mm 0.00 in0.0 mm
07:16 PM 63.3°F17.4°C 59.0°F15.0°C 86% 3.1 mph NNW5.0 kmh NNW 7.6 mph12.2 kmh 29.96 in1014.6 mb 0.00 in0.0 mm 0.00 in0.0 mm 0.00 in0.0 mm
07:31 PM 63.3°F17.4°C 59.0°F15.0°C 86% 3.8 mph NW6.1 kmh NW 7.6 mph12.2 kmh 29.96 in1014.6 mb 0.00 in0.0 mm 0.00 in0.0 mm 0.00 in0.0 mm
07:46 PM 63.1°F17.3°C 58.8°F14.9°C 86% Calm Calm 7.6 mph12.2 kmh 29.97 in1014.9 mb 0.00 in0.0 mm 0.00 in0.0 mm 0.00 in0.0 mm
08:01 PM 63.1°F17.3°C 58.8°F14.9°C 86% Calm Calm 7.6 mph12.2 kmh 29.97 in1014.9 mb 0.00 in0.0 mm 0.00 in0.0 mm 0.00 in0.0 mm
08:17 PM 63.3°F17.4°C 59.0°F15.0°C 86% Calm Calm 7.6 mph12.2 kmh 29.98 in1015.2 mb 0.00 in0.0 mm 0.00 in0.0 mm 0.00 in0.0 mm
08:32 PM 63.5°F17.5°C 59.2°F15.1°C 86% 1.8 mph NNW2.9 kmh NNW 4.9 mph7.9 kmh 29.99 in1015.6 mb 0.00 in0.0 mm 0.00 in0.0 mm 0.00 in0.0 mm
08:47 PM 63.5°F17.5°C 59.2°F15.1°C 86% 1.3 mph NW2.1 kmh NW 4.9 mph7.9 kmh 30.00 in1015.9 mb 0.00 in0.0 mm 0.00 in0.0 mm 0.00 in0.0 mm
09:02 PM 63.1°F17.3°C 59.2°F15.1°C 87% Calm Calm 4.9 mph7.9 kmh 30.01 in1016.3 mb 0.00 in0.0 mm 0.00 in0.0 mm 0.00 in0.0 mm
09:17 PM 63.0°F17.2°C 59.0°F15.0°C 87% 4.7 mph N7.6 kmh N 7.6 mph12.2 kmh 30.01 in1016.3 mb 0.00 in0.0 mm 0.00 in0.0 mm 0.00 in0.0 mm
09:32 PM 63.0°F17.2°C 59.0°F15.0°C 87% 1.6 mph NW2.6 kmh NW 4.9 mph7.9 kmh 30.01 in1016.3 mb 0.00 in0.0 mm 0.00 in0.0 mm 0.00 in0.0 mm
09:47 PM 63.0°F17.2°C 59.4°F15.2°C 88% Calm Calm 7.6 mph12.2 kmh 30.01 in1016.3 mb 0.00 in0.0 mm 0.00 in0.0 mm 0.00 in0.0 mm
10:02 PM 63.0°F17.2°C 59.7°F15.4°C 89% 4.0 mph NW6.4 kmh NW 7.6 mph12.2 kmh 30.02 in1016.6 mb 0.00 in0.0 mm 0.00 in0.0 mm 0.00 in0.0 mm
10:17 PM 62.8°F17.1°C 59.5°F15.3°C 89% 4.5 mph NNW7.2 kmh NNW 7.6 mph12.2 kmh 30.03 in1016.9 mb 0.00 in0.0 mm 0.00 in0.0 mm 0.00 in0.0 mm
10:32 PM 62.6°F17.0°C 59.4°F15.2°C 89% 1.6 mph NW2.6 kmh NW 7.6 mph12.2 kmh 30.03 in1016.9 mb 0.00 in0.0 mm 0.00 in0.0 mm 0.00 in0.0 mm
10:47 PM 62.6°F17.0°C 59.5°F15.3°C 90% 4.7 mph NNW7.6 kmh NNW 7.6 mph12.2 kmh 30.03 in1016.9 mb 0.00 in0.0 mm 0.00 in0.0 mm 0.00 in0.0 mm
11:02 PM 62.6°F17.0°C 59.5°F15.3°C 90% 3.8 mph N6.1 kmh N 7.6 mph12.2 kmh 30.03 in1016.9 mb 0.00 in0.0 mm 0.00 in0.0 mm 0.00 in0.0 mm
11:17 PM 62.4°F16.9°C 59.7°F15.4°C 91% 4.0 mph NNW6.4 kmh NNW 7.6 mph12.2 kmh 30.03 in1016.9 mb 0.00 in0.0 mm 0.00 in0.0 mm 0.00 in0.0 mm
11:32 PM 62.2°F16.8°C 59.5°F15.3°C 91% 2.5 mph NW4.0 kmh NW 10.1 mph16.3 kmh 30.04 in1017.3 mb 0.00 in0.0 mm 0.00 in0.0 mm 0.00 in0.0 mm
11:47 PM 62.2°F16.8°C 59.5°F15.3°C 91% 4.7 mph NNW7.6 kmh NNW 7.6 mph12.2 kmh 30.04 in1017.3 mb 0.00 in0.0 mm 0.00 in0.0 mm 0.00 in0.0 mm